Main page
METAR-TAF:

METAR-TAF

Airports :

Yap, Yap Island, Micronesia

Yap International Airport

latitude: 09-29N, longitude: 138-05E, elevation: 28 m

Current weather observation

The report was made 1 hour and 2 minutes ago, at 10:53 UTC
Wind 5 kt from variable directions
Temperature 28°C
Humidity 84%
Pressure 1009 hPa
Visibility: 19.3 km
Few clouds at a height of 1700 ft
Broken clouds at a height of 30000 ft

METAR: PTYA 201053Z VRB05KT 12SM FEW017 BKN300 28/25 A2979 RMK SLP088 T02790249

Time: 21:55 (11:55 UTC)

Forecast

The report was made 30 minutes ago, at 11:25 UTC
Forecast valid from 20 at 12 UTC to 21 at 12 UTC
Wind 8 kt from the East/Northeast
Visibility: 10 km
Scattered clouds at a height of 1700 ft
showers in vicinity

TAF: PTYA 201125Z 2012/2112 06008KT P6SM VCSH SCT017

Weather observations and forecasts of more than 4000 airports (METAR and TAF reports).

The available stations are represented by yellow and red dots on the map.

Hover mouse over dot to see the name of the station.

Then click to see weather observations and forecasts.

To change the map : click on the green buttons with a black cross to zoom in, on the green button with a dash to zoom out, or on the green arrows for adjacent maps.


METAR-TAF: